Time;durP1;ratioP1;P1;durP2;ratioP2;P2;SDS_P1;SDS_P2;PMS_P1;PMS_P2;Temp;Humidity;BMP_temperature;BMP_pressure;BME280_temperature;BME280_humidity;BME280_pressure;Samples;Min_cycle;Max_cycle;Signal;HPM_P1;HPM_P2
2023/11/02 00:01:11;;;;;;;10.80;3.42;;;;;;;17.55;78.63;100124.22;4970076;28;20050;-69
2023/11/02 00:03:41;;;;;;;7.88;3.92;;;;;;;17.54;78.83;100126.84;4954519;28;20041;-67
2023/11/02 00:06:21;;;;;;;10.30;4.15;;;;;;;17.50;79.49;100115.53;4970196;28;20042;-69
2023/11/02 00:09:12;;;;;;;8.43;3.67;;;;;;;17.51;79.60;100116.38;5039295;28;20469;-68
2023/11/02 00:11:55;;;;;;;6.45;3.92;;;;;;;17.17;79.86;100065.00;5008686;28;20081;-67
2023/11/02 00:14:22;;;;;;;8.40;3.92;;;;;;;17.23;80.38;100074.56;5008947;28;20518;-71
2023/11/02 00:16:48;;;;;;;7.50;3.90;;;;;;;17.55;80.24;100113.78;4988155;28;20030;-68
2023/11/02 00:19:22;;;;;;;7.82;3.75;;;;;;;17.55;80.68;100116.41;5009230;28;20034;-69
2023/11/02 00:21:48;;;;;;;6.65;3.53;;;;;;;17.58;80.95;100103.38;5008713;28;20091;-68
2023/11/02 00:24:13;;;;;;;6.28;3.95;;;;;;;17.54;81.18;100103.34;5008775;28;20034;-67
2023/11/02 00:26:39;;;;;;;7.93;3.60;;;;;;;16.94;81.73;100012.75;5009149;28;20058;-69
2023/11/02 00:29:04;;;;;;;8.07;4.13;;;;;;;17.49;81.77;100108.56;5008600;28;20479;-68
2023/11/02 00:31:30;;;;;;;9.02;4.22;;;;;;;17.49;82.24;100105.09;5008502;28;20511;-69
2023/11/02 00:33:55;;;;;;;7.65;4.38;;;;;;;17.45;81.92;100093.78;5008803;28;20129;-68
2023/11/02 00:36:22;;;;;;;9.23;3.95;;;;;;;17.20;81.82;100049.34;4959714;28;20037;-69
2023/11/02 00:38:47;;;;;;;9.88;4.32;;;;;;;17.58;82.00;100106.00;5008917;28;20038;-68
2023/11/02 00:41:15;;;;;;;7.28;4.20;;;;;;;17.60;81.69;100098.16;5008216;28;20034;-67
2023/11/02 00:43:40;;;;;;;8.50;4.13;;;;;;;17.19;81.71;100026.72;5008127;28;20136;-69
2023/11/02 00:46:06;;;;;;;10.07;4.88;;;;;;;17.67;81.81;100093.81;5008923;28;20528;-69
2023/11/02 00:48:33;;;;;;;6.43;4.10;;;;;;;17.25;81.80;100016.31;5028312;28;20049;-69
2023/11/02 00:51:20;;;;;;;7.20;4.18;;;;;;;17.71;82.32;100090.34;5050060;28;20099;-69
2023/11/02 00:53:58;;;;;;;8.48;5.15;;;;;;;17.71;82.29;100093.81;5050089;28;20102;-69
2023/11/02 00:56:28;;;;;;;7.57;5.20;;;;;;;17.66;83.08;100092.94;5050564;28;20445;-69
2023/11/02 00:58:54;;;;;;;9.82;4.70;;;;;;;17.69;83.29;100081.63;5051032;28;20075;-69
2023/11/02 01:01:25;;;;;;;9.30;5.35;;;;;;;17.38;83.41;100040.69;5050557;28;20037;-73
2023/11/02 01:04:02;;;;;;;7.95;5.32;;;;;;;17.63;84.06;100072.03;5050236;28;20029;-69
2023/11/02 01:06:32;;;;;;;8.65;5.60;;;;;;;17.57;83.90;100065.09;5048935;28;20037;-70
2023/11/02 01:09:20;;;;;;;;;;;;;;;17.69;84.12;100071.19;5051413;28;20090;-69
2023/11/02 01:11:46;;;;;;;8.23;4.97;;;;;;;17.60;84.63;100085.09;5049397;28;19912;-69
2023/11/02 01:14:48;;;;;;;10.55;5.35;;;;;;;17.61;84.73;100077.28;5014618;28;20041;-68
2023/11/02 01:17:19;;;;;;;9.80;4.95;;;;;;;17.29;84.79;100011.97;5047053;28;20509;-69
2023/11/02 01:20:11;;;;;;;10.23;6.10;;;;;;;17.62;85.13;100059.88;5046021;28;20021;-67
2023/11/02 01:22:43;;;;;;;10.73;5.40;;;;;;;17.66;84.93;100066.84;5047364;28;20123;-69
2023/11/02 01:25:12;;;;;;;9.20;5.10;;;;;;;17.67;85.23;100065.09;5049690;28;20040;-68
2023/11/02 01:27:38;;;;;;;;;;;;;;;17.65;85.79;100067.72;5048509;28;20456;-68
2023/11/02 01:30:24;;;;;;;10.52;5.78;;;;;;;17.68;85.99;100072.06;5049607;28;19964;-69
2023/11/02 01:32:50;;;;;;;10.82;5.45;;;;;;;17.67;85.52;100065.09;4969055;28;20047;-68
2023/11/02 01:35:34;;;;;;;10.15;5.68;;;;;;;17.70;86.12;100070.34;4968074;28;20046;-72
2023/11/02 01:38:00;;;;;;;41.95;6.68;;;;;;;17.70;86.23;100065.97;4967344;28;20646;-67
2023/11/02 01:40:35;;;;;;;10.30;6.60;;;;;;;17.73;86.48;100079.03;4965052;28;20050;-70
2023/11/02 01:43:03;;;;;;;9.45;5.78;;;;;;;17.01;86.74;99940.59;4936374;28;20554;-67
2023/11/02 01:45:33;;;;;;;10.40;6.13;;;;;;;17.86;86.17;100072.06;4968309;28;20039;-68
2023/11/02 01:48:06;;;;;;;9.18;5.60;;;;;;;17.88;86.50;100072.97;4968686;28;20034;-67
2023/11/02 01:50:44;;;;;;;12.98;5.50;;;;;;;17.85;85.90;100064.25;4968089;28;20137;-68
2023/11/02 01:53:45;;;;;;;10.40;4.80;;;;;;;17.83;85.48;100066.88;4968604;28;20477;-67
2023/11/02 01:56:22;;;;;;;11.25;5.93;;;;;;;17.83;85.14;100074.69;4891705;29;20099;-68
2023/11/02 01:59:05;;;;;;;10.25;5.38;;;;;;;17.84;85.08;100073.81;4890187;29;20068;-68
2023/11/02 02:02:01;;;;;;;11.25;5.72;;;;;;;17.36;85.37;100002.41;4892397;29;20045;-68
2023/11/02 02:05:11;;;;;;;21.15;7.10;;;;;;;17.80;85.11;100072.06;4891859;29;20475;-69
2023/11/02 02:07:45;;;;;;;24.30;11.82;;;;;;;17.77;85.10;100070.34;4876174;29;20115;-69
2023/11/02 02:10:25;;;;;;;17.50;7.70;;;;;;;17.72;83.87;100068.56;4936945;28;20509;-69
2023/11/02 02:13:06;;;;;;;13.65;5.60;;;;;;;17.75;83.57;100073.81;4923295;28;20158;-69
2023/11/02 02:15:39;;;;;;;10.73;5.20;;;;;;;17.30;83.54;99995.44;4968019;28;20817;-69
2023/11/02 02:18:44;;;;;;;11.70;4.93;;;;;;;17.70;82.94;100079.03;4967906;28;20524;-70
2023/11/02 02:21:24;;;;;;;12.57;5.45;;;;;;;17.66;82.75;100073.78;4955365;28;20122;-69
2023/11/02 02:23:53;;;;;;;11.45;4.50;;;;;;;17.70;82.96;100070.34;4971805;28;20406;-69
2023/11/02 02:26:59;;;;;;;10.52;5.18;;;;;;;17.73;83.01;100070.31;4971998;28;20113;-67
2023/11/02 02:29:43;;;;;;;8.23;5.00;;;;;;;17.77;82.80;100070.34;4970324;28;20061;-70
2023/11/02 02:32:31;;;;;;;9.25;4.57;;;;;;;17.77;82.67;100056.41;5022736;28;20064;-69
2023/11/02 02:35:05;;;;;;;18.08;5.68;;;;;;;17.74;82.85;100059.88;4971755;28;20090;-69
2023/11/02 02:37:31;;;;;;;6.10;4.35;;;;;;;17.39;83.23;100002.41;4971498;28;20050;-69
2023/11/02 02:40:07;;;;;;;7.72;4.07;;;;;;;17.45;82.67;100008.50;4972209;28;20042;-69
2023/11/02 02:42:37;;;;;;;10.10;4.50;;;;;;;17.70;82.76;100049.44;4971556;28;20031;-68
2023/11/02 02:45:09;;;;;;;;;;;;;;;17.65;83.30;100053.78;4971962;28;20118;-69
2023/11/02 02:47:39;;;;;;;8.18;4.68;;;;;;;17.56;82.89;100034.63;4971458;28;19969;-69
2023/11/02 02:50:08;;;;;;;5.65;3.97;;;;;;;17.27;82.76;99975.44;4971572;28;20030;-74
2023/11/02 02:52:36;;;;;;;7.70;4.20;;;;;;;17.65;82.92;100025.09;4972040;28;20042;-70
2023/11/02 02:55:01;;;;;;;10.85;5.00;;;;;;;17.63;82.94;100023.34;4971556;28;20043;-69
2023/11/02 02:57:30;;;;;;;5.78;4.07;;;;;;;17.58;82.79;100006.81;4971041;28;20035;-68
2023/11/02 02:59:59;;;;;;;7.50;4.57;;;;;;;17.64;82.79;100011.13;4971215;28;20064;-68
2023/11/02 03:02:32;;;;;;;10.15;4.85;;;;;;;17.65;83.27;100004.19;4971916;28;20485;-68
2023/11/02 03:04:59;;;;;;;14.02;4.97;;;;;;;17.60;82.63;100007.66;4971073;28;20047;-69
2023/11/02 03:07:29;;;;;;;13.50;5.43;;;;;;;17.56;82.70;99992.88;4972049;28;20093;-73
2023/11/02 03:10:02;;;;;;;9.10;4.72;;;;;;;17.60;81.69;99985.91;4971297;28;20035;-69
2023/11/02 03:12:30;;;;;;;13.68;5.03;;;;;;;17.22;82.44;99924.13;5011967;28;20495;-67
2023/11/02 03:14:59;;;;;;;13.77;4.63;;;;;;;17.55;82.73;99988.50;5052400;28;20032;-69
2023/11/02 03:17:43;;;;;;;13.68;5.15;;;;;;;17.52;83.05;99998.97;5052824;28;20028;-70
2023/11/02 03:20:14;;;;;;;11.60;4.68;;;;;;;17.47;83.63;99985.06;5052498;28;20032;-68
2023/11/02 03:22:43;;;;;;;8.65;4.47;;;;;;;17.52;83.67;99977.19;5033245;28;20030;-67
2023/11/02 03:25:18;;;;;;;10.90;4.70;;;;;;;17.47;83.22;99966.78;5052751;28;20021;-68
2023/11/02 03:28:20;;;;;;;12.10;5.30;;;;;;;17.38;82.73;99961.53;5052304;28;20025;-69
2023/11/02 03:31:01;;;;;;;10.48;5.47;;;;;;;17.01;82.62;99901.50;5052016;28;20063;-69
2023/11/02 03:33:49;;;;;;;12.40;5.72;;;;;;;17.34;82.40;99947.63;5051757;28;20037;-70
2023/11/02 03:36:29;;;;;;;12.30;6.05;;;;;;;17.34;82.98;99942.41;5048669;28;20566;-69
2023/11/02 03:39:23;;;;;;;16.23;5.45;;;;;;;17.42;82.89;99953.72;5049634;28;20032;-69
2023/11/02 03:42:13;;;;;;;21.88;5.95;;;;;;;17.40;83.31;99946.75;5051858;28;20028;-67
2023/11/02 03:44:56;;;;;;;20.67;6.68;;;;;;;17.28;84.48;99931.97;5036088;28;20056;-69
2023/11/02 03:47:43;;;;;;;17.02;6.20;;;;;;;17.33;85.27;99943.25;5051639;28;20078;-68
2023/11/02 03:50:28;;;;;;;21.35;6.15;;;;;;;17.28;85.53;99934.56;5052263;28;20549;-69
2023/11/02 03:53:18;;;;;;;19.35;6.30;;;;;;;17.04;85.05;99904.97;5051880;28;20040;-69
2023/11/02 03:56:02;;;;;;;13.48;5.60;;;;;;;17.04;83.57;99935.41;5049888;28;20039;-69
2023/11/02 03:58:33;;;;;;;9.93;4.97;;;;;;;16.96;83.62;99943.22;5050719;28;20101;-69
2023/11/02 04:01:09;;;;;;;14.77;5.30;;;;;;;16.92;83.79;99944.97;5051348;28;20033;-69
2023/11/02 04:03:42;;;;;;;7.93;4.55;;;;;;;16.08;84.08;99803.09;5052148;28;20226;-69
2023/11/02 04:06:13;;;;;;;14.25;5.30;;;;;;;16.89;84.17;99939.69;5051645;28;20113;-73
2023/11/02 04:08:45;;;;;;;12.32;5.80;;;;;;;16.82;83.97;99932.72;5049699;28;20028;-69
2023/11/02 04:11:26;;;;;;;11.75;5.32;;;;;;;16.70;83.76;99917.91;5046951;28;20041;-68
2023/11/02 04:14:14;;;;;;;14.30;6.20;;;;;;;16.84;84.04;99936.19;5033970;28;20025;-68
2023/11/02 04:16:40;;;;;;;12.52;5.40;;;;;;;16.92;84.61;99939.75;5051754;28;20545;-68
2023/11/02 04:19:07;;;;;;;14.20;6.35;;;;;;;16.98;85.65;99942.38;5050271;28;20037;-69
2023/11/02 04:21:33;;;;;;;18.65;5.72;;;;;;;17.01;86.56;99940.59;5050821;28;20029;-69
2023/11/02 04:23:59;;;;;;;25.98;7.50;;;;;;;16.93;86.98;99901.50;5050917;28;20457;-69
2023/11/02 04:26:26;;;;;;;17.58;5.72;;;;;;;16.94;85.99;99896.28;5032951;28;20037;-69
2023/11/02 04:28:51;;;;;;;18.55;5.10;;;;;;;17.06;84.37;99912.78;5051155;28;20051;-68
2023/11/02 04:31:16;;;;;;;17.73;5.18;;;;;;;16.91;85.32;99924.97;5050864;28;20483;-68
2023/11/02 04:33:43;;;;;;;21.13;5.95;;;;;;;16.88;86.33;99924.91;5050725;28;20028;-69
2023/11/02 04:36:09;;;;;;;25.55;6.55;;;;;;;16.89;87.02;99929.25;5051033;28;20068;-70
2023/11/02 04:38:35;;;;;;;16.08;6.20;;;;;;;16.87;87.34;99938.81;5049135;28;20029;-70
2023/11/02 04:41:00;;;;;;;15.18;6.38;;;;;;;16.85;86.64;99950.97;5050493;28;20463;-67
2023/11/02 04:43:45;;;;;;;15.43;5.60;;;;;;;16.84;86.88;99954.44;5032840;28;20427;-69
2023/11/02 04:46:11;;;;;;;15.63;6.30;;;;;;;16.77;85.58;99955.28;4997005;28;20677;-69
2023/11/02 04:48:36;;;;;;;28.83;15.18;;;;;;;16.80;84.69;99948.34;4998696;28;20125;-69
2023/11/02 04:51:02;;;;;;;24.00;11.10;;;;;;;16.86;84.82;99955.34;4973515;28;20041;-70
2023/11/02 04:53:28;;;;;;;14.70;6.50;;;;;;;16.55;84.76;99892.69;5006065;28;20037;-72
2023/11/02 04:55:53;;;;;;;16.50;6.25;;;;;;;16.98;84.91;99955.41;4999175;28;20038;-71
2023/11/02 04:58:19;;;;;;;13.32;5.82;;;;;;;17.05;85.25;99955.41;4997163;28;20076;-69
2023/11/02 05:00:46;;;;;;;23.00;7.95;;;;;;;17.06;86.56;99963.25;5000191;28;20128;-68
2023/11/02 05:03:12;;;;;;;14.27;5.90;;;;;;;16.91;86.17;99930.19;5004599;28;20178;-69
2023/11/02 05:05:37;;;;;;;22.30;5.93;;;;;;;16.98;85.33;99963.22;4997662;28;20116;-71
2023/11/02 05:08:03;;;;;;;11.82;5.82;;;;;;;16.53;85.07;99917.00;4996037;28;20098;-68
2023/11/02 05:10:28;;;;;;;12.13;5.25;;;;;;;16.72;85.23;99960.47;4990851;28;20112;-68
2023/11/02 05:12:53;;;;;;;19.65;5.63;;;;;;;16.73;86.21;99974.41;5005861;28;20041;-68
2023/11/02 05:15:19;;;;;;;13.07;6.13;;;;;;;16.62;85.87;99979.56;5003607;28;20144;-69
2023/11/02 05:17:44;;;;;;;17.15;5.70;;;;;;;16.00;86.75;99891.56;5035437;28;20045;-68
2023/11/02 05:20:10;;;;;;;11.27;5.47;;;;;;;16.03;86.99;99944.53;5027328;28;20495;-69
2023/11/02 05:22:37;;;;;;;15.50;5.63;;;;;;;16.22;88.62;99987.19;5049772;28;20025;-69
2023/11/02 05:25:03;;;;;;;12.90;5.57;;;;;;;16.23;89.68;99987.19;5049558;28;20514;-70
2023/11/02 05:27:29;;;;;;;14.30;5.82;;;;;;;16.17;89.33;99979.31;5049908;28;20041;-71
2023/11/02 05:29:54;;;;;;;16.42;6.05;;;;;;;16.33;89.17;100002.00;5049479;28;20120;-69
2023/11/02 05:32:20;;;;;;;20.15;6.95;;;;;;;16.35;89.54;99999.41;5050331;28;20140;-69
2023/11/02 05:34:45;;;;;;;20.42;10.10;;;;;;;16.39;89.67;100003.78;5049499;28;20033;-69
2023/11/02 05:37:11;;;;;;;19.48;9.93;;;;;;;16.30;89.54;99991.56;5049157;28;20028;-69
2023/11/02 05:39:36;;;;;;;17.38;8.73;;;;;;;16.37;90.08;99995.06;5046965;28;20017;-69
2023/11/02 05:42:02;;;;;;;17.13;7.78;;;;;;;16.46;90.32;100015.09;4994996;28;20039;-69
2023/11/02 05:44:27;;;;;;;13.55;7.40;;;;;;;16.50;91.07;100002.09;5048726;28;20088;-69
2023/11/02 05:46:53;;;;;;;12.02;6.97;;;;;;;16.47;91.24;100006.41;5049672;28;20033;-70
2023/11/02 05:49:18;;;;;;;16.33;6.90;;;;;;;16.56;90.78;100013.41;5047582;28;20067;-69
2023/11/02 05:51:44;;;;;;;13.43;6.55;;;;;;;16.63;91.00;100015.19;5030289;28;20107;-68
2023/11/02 05:54:10;;;;;;;17.00;6.80;;;;;;;16.11;91.93;99929.81;5045619;28;20037;-70
2023/11/02 05:56:38;;;;;;;14.35;7.10;;;;;;;16.63;91.96;100020.41;5050280;28;20061;-67
2023/11/02 05:59:05;;;;;;;16.20;6.85;;;;;;;16.68;92.39;100012.63;5049360;28;20120;-69
2023/11/02 06:01:30;;;;;;;37.72;10.98;;;;;;;16.70;92.92;100016.06;5049224;28;20091;-69
2023/11/02 06:03:57;;;;;;;21.48;7.72;;;;;;;16.77;93.17;100008.31;5049069;28;20037;-68
2023/11/02 06:06:23;;;;;;;30.27;8.10;;;;;;;16.47;93.25;99952.59;5048933;28;20036;-70
2023/11/02 06:08:50;;;;;;;13.60;6.68;;;;;;;16.91;93.57;100003.19;5049992;28;20501;-69
2023/11/02 06:11:16;;;;;;;10.07;6.22;;;;;;;16.91;93.73;99990.16;5049288;28;20120;-69
2023/11/02 06:13:42;;;;;;;11.38;5.40;;;;;;;16.98;93.53;99989.31;5047564;28;20068;-69
2023/11/02 06:16:09;;;;;;;19.50;5.78;;;;;;;17.02;94.18;99989.28;5042660;28;20067;-74
2023/11/02 06:18:34;;;;;;;15.07;4.63;;;;;;;16.63;94.00;99914.41;5049492;28;20039;-70
2023/11/02 06:20:59;;;;;;;12.25;4.95;;;;;;;16.78;93.66;99936.19;5049000;28;20382;-68
2023/11/02 06:23:25;;;;;;;20.02;5.85;;;;;;;17.13;94.51;99985.88;5047755;28;20025;-70
2023/11/02 06:25:50;;;;;;;20.70;6.70;;;;;;;17.26;94.39;99978.91;5048525;28;20032;-68
2023/11/02 06:28:18;;;;;;;21.13;6.72;;;;;;;17.31;94.84;99978.94;5049193;28;20014;-70
2023/11/02 06:30:43;;;;;;;18.15;6.63;;;;;;;16.89;95.04;99905.78;5048074;28;20459;-69
2023/11/02 06:33:09;;;;;;;17.45;7.13;;;;;;;17.44;95.96;99990.25;5047047;28;20072;-67
2023/11/02 06:35:35;;;;;;;32.60;7.18;;;;;;;17.54;96.05;99983.31;5048547;28;20033;-68
2023/11/02 06:38:04;;;;;;;37.72;7.32;;;;;;;17.25;95.87;99927.59;5048547;28;20036;-68
2023/11/02 06:40:30;;;;;;;29.10;7.03;;;;;;;17.53;96.55;99968.50;5048389;28;20029;-68
2023/11/02 06:42:57;;;;;;;17.50;6.55;;;;;;;17.61;96.62;99969.38;5048401;28;20033;-66
2023/11/02 06:45:23;;;;;;;17.35;6.47;;;;;;;17.73;95.66;99974.59;5048191;28;20036;-67
2023/11/02 06:47:49;;;;;;;105.10;34.08;;;;;;;17.53;95.15;99929.34;5047920;28;20037;-67
2023/11/02 06:50:15;;;;;;;77.68;33.03;;;;;;;17.53;94.84;99911.94;5047145;28;20029;-68
2023/11/02 06:52:40;;;;;;;83.88;31.45;;;;;;;17.76;94.63;99950.25;5047768;28;20032;-70
2023/11/02 06:55:06;;;;;;;111.00;55.53;;;;;;;17.94;94.53;99975.47;5046872;28;20033;-69
2023/11/02 06:57:31;;;;;;;278.55;164.68;;;;;;;18.04;93.77;99986.78;5047674;28;20064;-71
2023/11/02 06:59:57;;;;;;;837.38;382.50;;;;;;;18.08;92.87;99991.13;5047753;28;20036;-71
2023/11/02 07:02:24;;;;;;;801.63;321.92;;;;;;;18.04;92.30;99979.81;5036630;28;20029;-70
2023/11/02 07:04:57;;;;;;;179.75;63.70;;;;;;;18.13;92.68;99984.19;5045287;28;20032;-71
2023/11/02 07:07:22;;;;;;;89.03;35.50;;;;;;;18.13;92.41;99978.94;5051418;28;20029;-68
2023/11/02 07:09:48;;;;;;;33.45;14.70;;;;;;;18.14;92.65;99967.59;5052475;28;20028;-69
2023/11/02 07:12:14;;;;;;;20.13;7.93;;;;;;;18.18;93.23;99961.53;5051079;28;20031;-70
2023/11/02 07:14:41;;;;;;;14.65;7.25;;;;;;;18.00;92.16;99944.13;5050579;28;20538;-67
2023/11/02 07:17:07;;;;;;;17.95;6.63;;;;;;;18.11;93.39;99963.25;5049291;28;20072;-69
2023/11/02 07:19:32;;;;;;;18.55;6.88;;;;;;;18.15;93.47;99955.44;5051444;28;20056;-70
2023/11/02 07:21:58;;;;;;;22.90;7.40;;;;;;;17.99;93.83;99918.03;5049879;28;20036;-70
2023/11/02 07:24:24;;;;;;;20.75;7.18;;;;;;;18.16;92.99;99958.03;5051576;28;20037;-72
2023/11/02 07:26:49;;;;;;;14.73;5.47;;;;;;;18.08;92.27;99954.56;5051352;28;20085;-67
2023/11/02 07:29:15;;;;;;;18.45;5.75;;;;;;;18.20;92.95;99966.72;5050916;28;20411;-69
2023/11/02 07:31:41;;;;;;;16.80;6.55;;;;;;;18.03;92.68;99920.63;5048326;28;20047;-69
2023/11/02 07:34:06;;;;;;;25.55;7.35;;;;;;;18.33;91.88;99951.88;5051078;28;20041;-71
2023/11/02 07:36:35;;;;;;;15.88;5.82;;;;;;;18.32;90.88;99947.53;5050743;28;20107;-69
2023/11/02 07:39:01;;;;;;;11.00;4.57;;;;;;;18.43;90.59;99945.78;5049612;28;20033;-69
2023/11/02 07:41:26;;;;;;;6.07;4.45;;;;;;;18.00;90.33;99865.78;5051101;28;20029;-69
2023/11/02 07:43:52;;;;;;;15.57;5.30;;;;;;;18.38;90.75;99930.09;5050141;28;20045;-69
2023/11/02 07:46:19;;;;;;;12.52;4.50;;;;;;;18.45;90.49;99940.53;5032800;28;20047;-69
2023/11/02 07:48:45;;;;;;;6.78;3.72;;;;;;;18.40;89.86;99937.94;5033474;28;20114;-70
2023/11/02 07:51:14;;;;;;;7.63;4.30;;;;;;;18.41;88.92;99952.75;5051788;28;20040;-67
2023/11/02 07:53:40;;;;;;;9.88;4.30;;;;;;;18.36;89.24;99951.88;5048428;28;20033;-69
2023/11/02 07:56:06;;;;;;;10.70;4.15;;;;;;;18.18;89.26;99932.78;5040934;28;20082;-69
2023/11/02 07:58:31;;;;;;;9.52;3.55;;;;;;;18.23;88.70;99938.84;5050782;28;20029;-69
2023/11/02 08:00:56;;;;;;;7.53;3.80;;;;;;;17.83;89.21;99878.88;5050921;28;20029;-69
2023/11/02 08:03:24;;;;;;;7.55;4.05;;;;;;;17.75;89.01;99876.25;5050593;28;20036;-70
2023/11/02 08:05:50;;;;;;;6.60;3.50;;;;;;;18.08;89.08;99921.47;5032844;28;20123;-66
2023/11/02 08:08:18;;;;;;;7.63;3.75;;;;;;;18.22;89.63;99939.72;5029407;28;20029;-69
2023/11/02 08:10:44;;;;;;;10.20;4.07;;;;;;;18.17;89.48;99928.44;5050972;28;20470;-68
2023/11/02 08:13:09;;;;;;;8.05;3.85;;;;;;;17.63;90.38;99844.94;5049031;28;20064;-68
2023/11/02 08:15:35;;;;;;;8.82;3.42;;;;;;;17.23;89.60;99777.19;5051141;28;20020;-68
2023/11/02 08:18:00;;;;;;;7.78;3.88;;;;;;;18.14;90.37;99935.41;5049406;28;20403;-67
2023/11/02 08:20:26;;;;;;;6.53;3.92;;;;;;;18.18;90.32;99935.41;5050039;28;20049;-67
2023/11/02 08:22:51;;;;;;;12.68;3.58;;;;;;;18.17;90.82;99925.81;5031747;28;20111;-69
2023/11/02 08:25:17;;;;;;;11.48;3.92;;;;;;;18.06;90.72;99917.13;5047129;28;20549;-66
2023/11/02 08:27:44;;;;;;;8.25;4.80;;;;;;;18.11;91.06;99908.41;5030695;28;20039;-69
2023/11/02 08:30:10;;;;;;;8.70;4.03;;;;;;;18.10;90.47;99908.41;5050059;28;21212;-68
2023/11/02 08:32:36;;;;;;;8.73;3.60;;;;;;;18.08;91.09;99894.47;5051630;28;20033;-69
2023/11/02 08:35:02;;;;;;;17.88;4.80;;;;;;;18.29;90.54;99930.13;5050973;28;20035;-67
2023/11/02 08:37:28;;;;;;;11.82;4.40;;;;;;;18.25;90.48;99931.88;5027939;28;20072;-66
2023/11/02 08:39:53;;;;;;;21.73;5.88;;;;;;;18.33;91.87;99942.31;5047627;28;20044;-68
2023/11/02 08:42:19;;;;;;;12.48;4.72;;;;;;;18.25;91.90;99924.03;5049570;28;20464;-69
2023/11/02 08:44:45;;;;;;;10.43;5.03;;;;;;;18.33;90.90;99934.47;5049188;28;20052;-65
2023/11/02 08:47:10;;;;;;;17.77;5.57;;;;;;;18.26;90.96;99936.22;5032570;28;20037;-71
2023/11/02 08:49:37;;;;;;;10.45;4.50;;;;;;;18.17;90.33;99925.81;5051925;28;20039;-66
2023/11/02 08:52:04;;;;;;;14.88;4.65;;;;;;;18.27;90.99;99950.16;5032456;28;20043;-69
2023/11/02 08:54:29;;;;;;;13.48;4.85;;;;;;;18.19;91.43;99944.09;5049257;28;20107;-68
2023/11/02 08:56:55;;;;;;;28.63;4.93;;;;;;;17.98;93.55;99960.69;5030952;28;20101;-67
2023/11/02 08:59:21;;;;;;;14.32;4.72;;;;;;;17.96;94.02;99960.69;5049637;28;20041;-66
2023/11/02 09:01:48;;;;;;;15.27;5.85;;;;;;;17.92;94.21;99940.66;5050453;28;20395;-66
2023/11/02 09:04:15;;;;;;;20.83;5.32;;;;;;;18.01;95.48;99955.47;5013817;28;20048;-67
2023/11/02 09:06:40;;;;;;;24.17;6.10;;;;;;;17.88;95.91;99947.63;5049529;28;20031;-66
2023/11/02 09:09:05;;;;;;;7.68;4.20;;;;;;;18.06;96.13;99943.25;5048998;28;20033;-67
2023/11/02 09:11:31;;;;;;;13.18;4.13;;;;;;;18.00;94.99;99928.47;5049356;28;20032;-66
2023/11/02 09:13:57;;;;;;;21.10;4.10;;;;;;;17.68;94.84;99877.13;5048805;28;20041;-67
2023/11/02 09:16:23;;;;;;;14.15;3.55;;;;;;;17.89;93.55;99904.09;5049313;28;20039;-66
2023/11/02 09:18:51;;;;;;;12.82;3.95;;;;;;;18.06;94.34;99931.06;5049386;28;20094;-67
2023/11/02 09:21:17;;;;;;;12.68;4.20;;;;;;;18.07;93.90;99922.34;5049194;28;20083;-67
2023/11/02 09:23:43;;;;;;;12.60;4.15;;;;;;;18.14;94.68;99931.03;5050454;28;20036;-67
2023/11/02 09:26:08;;;;;;;18.50;4.35;;;;;;;17.79;94.37;99853.63;5048942;28;20106;-68
2023/11/02 09:28:34;;;;;;;28.98;6.90;;;;;;;17.81;94.81;99840.53;5049021;28;20485;-67
2023/11/02 09:31:00;;;;;;;14.77;4.95;;;;;;;18.25;92.99;99897.91;5031155;28;20059;-66
2023/11/02 09:33:25;;;;;;;14.30;4.80;;;;;;;18.38;92.79;99890.91;5048921;28;20570;-66
2023/11/02 09:35:51;;;;;;;15.65;5.65;;;;;;;18.50;92.14;99892.56;5049263;28;20025;-65
2023/11/02 09:38:16;;;;;;;19.27;5.10;;;;;;;18.58;92.29;99874.25;5049825;28;20090;-68
2023/11/02 09:40:42;;;;;;;11.07;4.90;;;;;;;18.73;91.45;99874.16;5048753;28;20068;-70
2023/11/02 09:43:07;;;;;;;9.88;4.10;;;;;;;18.91;90.04;99867.94;5049577;28;20136;-68
2023/11/02 09:45:36;;;;;;;12.52;4.68;;;;;;;19.07;90.40;99854.78;5030095;28;20101;-66
2023/11/02 09:48:04;;;;;;;14.38;4.45;;;;;;;19.08;88.56;99857.38;5049129;28;20036;-67
2023/11/02 09:50:29;;;;;;;11.63;4.47;;;;;;;19.12;88.49;99850.38;5049162;28;20094;-67
2023/11/02 09:52:56;;;;;;;11.88;4.68;;;;;;;19.07;88.21;99826.84;5048682;28;20033;-70
2023/11/02 09:55:23;;;;;;;9.45;4.72;;;;;;;19.24;87.52;99836.34;5049495;28;20035;-68
2023/11/02 09:57:50;;;;;;;8.32;4.57;;;;;;;19.22;87.10;99828.47;5049150;28;20486;-67
2023/11/02 10:00:17;;;;;;;7.75;4.30;;;;;;;18.84;86.64;99755.53;5042432;28;20029;-67
2023/11/02 10:02:50;;;;;;;13.02;5.10;;;;;;;19.31;86.63;99818.81;5049833;28;20052;-66
2023/11/02 10:05:19;;;;;;;13.38;5.07;;;;;;;19.38;86.19;99815.25;5048705;28;20037;-66
2023/11/02 10:07:47;;;;;;;17.17;5.15;;;;;;;19.50;87.04;99812.53;5049036;28;20031;-67
2023/11/02 10:10:13;;;;;;;12.63;5.35;;;;;;;19.54;87.41;99816.81;5026074;28;20037;-69
2023/11/02 10:12:40;;;;;;;15.38;5.60;;;;;;;19.15;87.39;99765.75;5027059;28;20463;-69
2023/11/02 10:15:09;;;;;;;12.52;4.30;;;;;;;19.37;87.41;99792.56;5026318;28;20480;-70
2023/11/02 10:17:39;;;;;;;13.70;4.45;;;;;;;19.47;86.75;99803.81;5017860;28;20095;-68
2023/11/02 10:20:08;;;;;;;;;;;;;;;19.48;85.65;99811.66;5026687;28;20034;-67
2023/11/02 10:22:34;;;;;;;10.60;4.35;;;;;;;19.36;86.22;99804.78;5026721;28;19953;-68
2023/11/02 10:25:00;;;;;;;12.30;4.25;;;;;;;19.30;86.81;99806.59;5025978;28;20195;-67
2023/11/02 10:27:26;;;;;;;13.48;4.47;;;;;;;19.14;87.05;99764.00;5026258;28;20462;-65
2023/11/02 10:29:52;;;;;;;16.25;4.40;;;;;;;19.27;87.52;99785.72;5026020;28;20049;-68
2023/11/02 10:32:21;;;;;;;12.02;4.82;;;;;;;19.40;87.80;99789.91;5026675;28;20099;-67
2023/11/02 10:34:46;;;;;;;16.90;4.77;;;;;;;19.43;87.23;99774.19;5024182;28;20775;-68
2023/11/02 10:37:13;;;;;;;9.02;4.03;;;;;;;19.44;86.75;99770.69;5026024;28;21091;-67
2023/11/02 10:39:39;;;;;;;11.38;4.38;;;;;;;19.46;87.21;99770.66;5026590;28;20026;-67
2023/11/02 10:42:05;;;;;;;11.77;4.93;;;;;;;19.41;86.37;99752.38;5049132;28;20051;-67
2023/11/02 10:44:33;;;;;;;18.88;4.88;;;;;;;19.58;87.72;99765.31;5048307;28;20044;-67
2023/11/02 10:47:04;;;;;;;12.10;4.72;;;;;;;19.50;87.87;99754.94;5052593;28;20479;-66
2023/11/02 10:49:33;;;;;;;10.57;4.68;;;;;;;19.54;87.37;99759.22;5051859;28;20032;-68
2023/11/02 10:51:59;;;;;;;;;;;;;;;19.54;87.13;99748.75;5053066;28;20021;-65
2023/11/02 10:54:51;;;;;;;16.80;6.93;;;;;;;19.58;86.89;99748.72;5053152;28;19935;-68
2023/11/02 10:57:19;;;;;;;19.15;6.43;;;;;;;19.62;86.89;99745.19;5052328;28;20036;-67
2023/11/02 10:59:45;;;;;;;9.82;4.63;;;;;;;19.58;86.65;99753.94;5052307;28;20119;-65
2023/11/02 11:02:14;;;;;;;15.88;5.13;;;;;;;19.58;86.69;99753.94;5051501;28;20411;-67
2023/11/02 11:04:43;;;;;;;10.15;4.18;;;;;;;19.65;87.30;99747.75;5053127;28;20021;-68
2023/11/02 11:07:09;;;;;;;14.05;5.03;;;;;;;19.21;89.02;99690.66;5052461;28;20381;-67
2023/11/02 11:09:36;;;;;;;6.97;4.13;;;;;;;19.51;90.00;99737.44;5052139;28;20032;-65
2023/11/02 11:12:04;;;;;;;8.80;3.85;;;;;;;19.45;91.18;99743.63;5048166;28;20120;-66
2023/11/02 11:14:30;;;;;;;10.50;4.32;;;;;;;19.42;91.68;99738.44;5052204;28;20434;-68
2023/11/02 11:16:56;;;;;;;6.57;4.25;;;;;;;19.39;92.30;99722.78;5051778;28;20033;-64
2023/11/02 11:19:24;;;;;;;8.40;4.25;;;;;;;19.27;91.75;99725.53;5052001;28;20029;-67
2023/11/02 11:21:52;;;;;;;8.95;4.25;;;;;;;19.35;92.07;99734.13;5051970;28;20625;-67
2023/11/02 11:24:18;;;;;;;13.80;5.53;;;;;;;19.26;91.89;99736.88;5052359;28;20025;-66
2023/11/02 11:26:55;;;;;;;11.50;4.28;;;;;;;18.85;92.72;99692.72;5034764;28;20032;-66
2023/11/02 11:29:41;;;;;;;11.23;5.25;;;;;;;18.90;93.20;99724.09;5051327;28;20398;-66
2023/11/02 11:32:25;;;;;;;8.23;4.25;;;;;;;18.82;94.31;99732.00;5050657;28;20048;-66
2023/11/02 11:34:53;;;;;;;10.60;4.72;;;;;;;18.39;95.45;99675.72;5051248;28;20438;-66
2023/11/02 11:37:41;;;;;;;6.53;5.13;;;;;;;18.75;95.27;99735.56;5051460;28;20035;-66
2023/11/02 11:40:29;;;;;;;7.25;4.53;;;;;;;18.72;95.28;99725.97;5052471;28;20083;-66